Time;durP1;ratioP1;P1;durP2;ratioP2;P2;SDS_P1;SDS_P2;PMS_P1;PMS_P2;Temp;Humidity;BMP_temperature;BMP_pressure;BME280_temperature;BME280_humidity;BME280_pressure;Samples;Min_cycle;Max_cycle;Signal;HPM_P1;HPM_P2
2023/02/14 00:00:41;;;;;;;;;;;5.90;52.40;;;;;;4978120;28;19910;-80
2023/02/14 00:03:06;;;;;;;;;;;5.70;52.40;;;;;;4996043;28;19992;-81
2023/02/14 00:05:32;;;;;;;;;;;5.70;52.50;;;;;;4973979;28;19955;-81
2023/02/14 00:07:57;;;;;;;;;;;5.60;52.60;;;;;;4993129;28;20038;-80
2023/02/14 00:10:23;;;;;;;;;;;5.60;53.00;;;;;;4993729;28;19917;-81
2023/02/14 00:12:49;;;;;;;;;;;5.50;53.20;;;;;;4991622;28;19991;-80
2023/02/14 00:15:24;;;;;;;;;;;5.50;53.30;;;;;;4991295;28;19921;-80
2023/02/14 00:17:54;;;;;;;;;;;5.50;53.40;;;;;;4987456;28;19968;-78
2023/02/14 00:20:22;;;;;;;;;;;5.40;53.50;;;;;;4996656;28;20463;-80
2023/02/14 00:22:48;;;;;;;;;;;5.30;53.80;;;;;;4998115;28;20012;-79
2023/02/14 00:25:13;;;;;;;;;;;5.20;53.90;;;;;;4997449;28;20359;-80
2023/02/14 00:27:39;;;;;;;;;;;5.20;54.10;;;;;;4993635;28;20764;-79
2023/02/14 00:30:06;;;;;;;;;;;5.20;54.30;;;;;;4992887;28;19996;-82
2023/02/14 00:32:32;;;;;;;;;;;5.10;54.40;;;;;;4995364;28;19961;-79
2023/02/14 00:34:57;;;;;;;;;;;5.10;54.40;;;;;;4994710;28;20656;-79
2023/02/14 00:37:23;;;;;;;;;;;5.10;54.50;;;;;;4989748;28;19985;-80
2023/02/14 00:39:48;;;;;;;;;;;5.10;54.60;;;;;;4987411;28;19913;-82
2023/02/14 00:42:15;;;;;;;;;;;5.00;54.60;;;;;;4999910;28;19921;-78
2023/02/14 00:44:40;;;;;;;;;;;5.00;54.80;;;;;;4990280;28;19914;-79
2023/02/14 00:47:06;;;;;;;;;;;5.00;54.80;;;;;;4993799;28;19932;-78
2023/02/14 00:49:32;;;;;;;;;;;5.00;54.90;;;;;;5004215;28;19920;-81
2023/02/14 00:51:58;;;;;;;;;;;4.90;55.00;;;;;;4998263;28;19999;-79
2023/02/14 00:54:23;;;;;;;;;;;4.90;55.00;;;;;;4996602;28;19960;-81
2023/02/14 00:56:49;;;;;;;;;;;4.90;55.10;;;;;;4998953;28;19956;-82
2023/02/14 00:59:15;;;;;;;;;;;4.80;55.30;;;;;;4997368;28;19960;-79
2023/02/14 01:01:40;;;;;;;;;;;4.80;55.50;;;;;;4990963;28;19928;-80
2023/02/14 01:04:06;;;;;;;;;;;4.70;55.50;;;;;;5000211;28;19918;-81
2023/02/14 01:06:32;;;;;;;;;;;4.70;55.70;;;;;;5001957;28;20377;-80
2023/02/14 01:08:58;;;;;;;;;;;4.70;55.90;;;;;;4996584;28;19917;-81
2023/02/14 01:11:23;;;;;;;;;;;4.60;56.10;;;;;;4994514;28;19983;-80
2023/02/14 01:13:50;;;;;;;;;;;4.50;56.40;;;;;;4996637;28;19921;-81
2023/02/14 01:16:19;;;;;;;;;;;4.50;56.70;;;;;;4977404;28;20348;-78
2023/02/14 01:18:44;;;;;;;;;;;4.40;56.70;;;;;;4981990;28;19921;-78
2023/02/14 01:21:13;;;;;;;;;;;4.40;56.70;;;;;;4980441;28;19917;-78
2023/02/14 01:23:39;;;;;;;;;;;4.40;56.70;;;;;;4997319;28;20587;-80
2023/02/14 01:26:05;;;;;;;;;;;4.30;57.00;;;;;;4999283;28;19917;-78
2023/02/14 01:28:31;;;;;;;;;;;4.40;57.00;;;;;;4998307;28;19913;-79
2023/02/14 01:30:56;;;;;;;;;;;4.30;56.80;;;;;;4999625;28;19971;-79
2023/02/14 01:33:22;;;;;;;;;;;4.30;57.00;;;;;;4999912;28;19913;-77
2023/02/14 01:35:47;;;;;;;;;;;4.30;56.80;;;;;;4996742;28;20184;-78
2023/02/14 01:38:13;;;;;;;;;;;4.30;56.90;;;;;;4989484;28;19945;-79
2023/02/14 01:40:42;;;;;;;;;;;4.20;57.10;;;;;;4978668;28;19917;-79
2023/02/14 01:43:13;;;;;;;;;;;4.20;57.00;;;;;;4998938;28;20730;-80
2023/02/14 01:45:39;;;;;;;;;;;4.10;57.00;;;;;;4983320;28;19970;-81
2023/02/14 01:48:05;;;;;;;;;;;4.20;57.10;;;;;;4995083;28;20542;-82
2023/02/14 01:50:33;;;;;;;;;;;4.10;57.20;;;;;;4999733;28;20361;-80
2023/02/14 01:53:01;;;;;;;;;;;4.10;57.30;;;;;;4995922;28;19915;-80
2023/02/14 01:55:29;;;;;;;;;;;4.10;57.10;;;;;;5002144;28;19964;-79
2023/02/14 01:57:58;;;;;;;;;;;4.00;57.40;;;;;;5004277;28;19916;-81
2023/02/14 02:03:09;;;;;;;;;;;4.00;57.70;;;;;;4991471;28;19929;-80
2023/02/14 02:05:36;;;;;;;;;;;4.00;57.90;;;;;;4994792;28;19958;-79
2023/02/14 02:08:02;;;;;;;;;;;3.80;58.30;;;;;;4992384;28;20723;-79
2023/02/14 02:10:28;;;;;;;;;;;3.70;58.90;;;;;;4994713;28;19924;-79
2023/02/14 02:12:54;;;;;;;;;;;3.60;59.10;;;;;;4987794;28;19913;-79
2023/02/14 02:15:21;;;;;;;;;;;3.60;59.60;;;;;;4992894;28;20419;-79
2023/02/14 02:17:47;;;;;;;;;;;3.60;59.60;;;;;;4996037;28;19956;-78
2023/02/14 02:20:16;;;;;;;;;;;3.60;59.80;;;;;;4981742;28;20388;-81
2023/02/14 02:22:53;;;;;;;;;;;3.60;59.80;;;;;;4987820;28;20452;-80
2023/02/14 02:25:37;;;;;;;;;;;3.50;59.70;;;;;;4993556;28;19963;-80
2023/02/14 02:28:21;;;;;;;;;;;3.50;59.70;;;;;;4995275;28;19918;-80
2023/02/14 02:30:53;;;;;;;;;;;3.50;60.10;;;;;;4998533;28;19963;-79
2023/02/14 02:33:37;;;;;;;;;;;3.40;59.80;;;;;;4996869;28;20434;-80
2023/02/14 02:36:02;;;;;;;;;;;3.50;59.70;;;;;;4991997;28;19926;-77
2023/02/14 02:38:31;;;;;;;;;;;3.30;60.10;;;;;;4991119;28;19935;-79
2023/02/14 02:41:06;;;;;;;;;;;3.40;60.00;;;;;;4991632;28;19921;-83
2023/02/14 02:43:35;;;;;;;;;;;3.30;60.10;;;;;;4998795;28;19967;-80
2023/02/14 02:48:58;;;;;;;;;;;3.50;59.70;;;;;;4990884;28;20487;-80
2023/02/14 02:54:22;;;;;;;;;;;3.40;60.40;;;;;;4997120;28;20321;-80
2023/02/14 02:56:52;;;;;;;;;;;3.20;60.80;;;;;;4996570;28;20036;-83
2023/02/14 02:59:23;;;;;;;;;;;3.20;61.10;;;;;;4974263;28;19996;-81
2023/02/14 03:01:58;;;;;;;;;;;3.20;61.10;;;;;;4994692;28;19968;-81
2023/02/14 03:09:56;;;;;;;;;;;3.00;61.50;;;;;;4996070;28;20364;-80
2023/02/14 03:12:33;;;;;;;;;;;3.00;61.50;;;;;;4986390;28;20440;-80
2023/02/14 03:15:02;;;;;;;;;;;3.20;60.30;;;;;;5000874;28;19921;-80
2023/02/14 03:17:33;;;;;;;;;;;3.30;59.80;;;;;;4995277;28;19920;-79
2023/02/14 03:20:16;;;;;;;;;;;3.30;59.70;;;;;;4992037;28;19914;-81
2023/02/14 03:22:47;;;;;;;;;;;3.20;60.10;;;;;;4992140;28;19996;-81
2023/02/14 03:25:16;;;;;;;;;;;3.10;60.30;;;;;;4993216;28;19913;-84
2023/02/14 03:27:45;;;;;;;;;;;3.10;60.70;;;;;;4994521;28;20095;-80
2023/02/14 03:30:23;;;;;;;;;;;3.00;60.90;;;;;;4993532;28;19996;-79
2023/02/14 03:32:57;;;;;;;;;;;3.00;61.20;;;;;;5001075;28;19914;-79
2023/02/14 03:35:36;;;;;;;;;;;3.00;61.40;;;;;;4989929;28;20423;-78
2023/02/14 03:38:08;;;;;;;;;;;3.00;61.50;;;;;;4996054;28;19909;-79
2023/02/14 03:40:34;;;;;;;;;;;2.80;61.90;;;;;;4984551;28;19909;-79
2023/02/14 03:43:03;;;;;;;;;;;2.70;62.90;;;;;;4981429;28;19910;-80
2023/02/14 03:45:34;;;;;;;;;;;2.70;63.00;;;;;;4995657;28;19914;-81
2023/02/14 03:48:01;;;;;;;;;;;2.70;63.20;;;;;;5003371;28;20335;-81
2023/02/14 03:50:30;;;;;;;;;;;2.60;63.20;;;;;;5000199;28;20503;-82
2023/02/14 03:52:57;;;;;;;;;;;2.70;63.30;;;;;;4991693;28;19917;-79
2023/02/14 03:55:30;;;;;;;;;;;2.70;63.40;;;;;;4975630;28;19918;-79
2023/02/14 03:58:10;;;;;;;;;;;2.60;63.60;;;;;;4972135;28;19925;-79
2023/02/14 04:00:37;;;;;;;;;;;2.50;64.20;;;;;;5000275;28;19924;-79
2023/02/14 04:03:05;;;;;;;;;;;2.60;63.40;;;;;;4992980;28;20007;-81
2023/02/14 04:05:31;;;;;;;;;;;2.60;64.00;;;;;;4994748;28;20268;-78
2023/02/14 04:07:58;;;;;;;;;;;2.60;63.50;;;;;;4994810;28;19930;-79
2023/02/14 04:10:24;;;;;;;;;;;2.60;63.30;;;;;;4997545;28;19913;-78
2023/02/14 04:12:50;;;;;;;;;;;2.50;63.80;;;;;;4992693;28;19967;-80
2023/02/14 04:15:16;;;;;;;;;;;2.60;63.60;;;;;;4980031;28;19933;-78
2023/02/14 04:20:26;;;;;;;;;;;2.70;63.00;;;;;;4987896;28;19933;-79
2023/02/14 04:22:52;;;;;;;;;;;2.60;63.60;;;;;;4998948;28;19975;-79
2023/02/14 04:25:18;;;;;;;;;;;2.50;63.80;;;;;;5001321;28;20427;-78
2023/02/14 04:27:44;;;;;;;;;;;2.50;64.20;;;;;;4976629;28;20431;-82
2023/02/14 04:30:11;;;;;;;;;;;2.50;64.30;;;;;;4992250;28;19921;-80
2023/02/14 04:32:36;;;;;;;;;;;2.40;64.70;;;;;;4978381;28;19917;-79
2023/02/14 04:35:02;;;;;;;;;;;2.40;64.70;;;;;;4992090;28;19929;-78
2023/02/14 04:37:28;;;;;;;;;;;2.30;64.90;;;;;;4994485;28;19928;-78
2023/02/14 04:39:53;;;;;;;;;;;2.20;65.40;;;;;;4994838;28;19921;-84
2023/02/14 04:42:19;;;;;;;;;;;2.30;65.30;;;;;;4992729;28;19913;-81
2023/02/14 04:44:44;;;;;;;;;;;2.30;65.20;;;;;;4998923;28;19913;-79
2023/02/14 04:47:10;;;;;;;;;;;2.30;65.20;;;;;;4993074;28;19917;-80
2023/02/14 04:49:36;;;;;;;;;;;2.30;65.00;;;;;;4992478;28;20020;-79
2023/02/14 04:52:01;;;;;;;;;;;2.30;65.10;;;;;;4991249;28;19909;-79
2023/02/14 04:54:27;;;;;;;;;;;2.20;65.50;;;;;;4994556;28;19952;-80
2023/02/14 04:56:52;;;;;;;;;;;2.20;65.40;;;;;;4990356;28;19914;-78
2023/02/14 04:59:18;;;;;;;;;;;2.20;65.50;;;;;;4991112;28;19913;-79
2023/02/14 05:01:44;;;;;;;;;;;2.10;66.10;;;;;;4993950;28;19928;-80
2023/02/14 05:04:09;;;;;;;;;;;2.10;66.00;;;;;;4999409;28;19917;-78
2023/02/14 05:06:35;;;;;;;;;;;2.00;66.60;;;;;;4992963;28;20373;-79
2023/02/14 05:09:01;;;;;;;;;;;1.90;67.00;;;;;;4977522;28;19918;-81
2023/02/14 05:11:27;;;;;;;;;;;2.00;67.00;;;;;;4996202;28;19921;-78
2023/02/14 05:13:52;;;;;;;;;;;1.90;67.20;;;;;;4992490;28;20431;-78
2023/02/14 05:16:18;;;;;;;;;;;1.80;67.90;;;;;;4996389;28;19917;-77
2023/02/14 05:18:44;;;;;;;;;;;1.80;67.80;;;;;;4990633;28;19939;-80
2023/02/14 05:21:10;;;;;;;;;;;1.70;68.30;;;;;;4996913;28;19935;-80
2023/02/14 05:23:35;;;;;;;;;;;1.70;68.30;;;;;;4993983;28;19921;-78
2023/02/14 05:26:01;;;;;;;;;;;1.70;68.50;;;;;;4990929;28;19914;-79
2023/02/14 05:28:27;;;;;;;;;;;1.60;69.40;;;;;;4999414;28;19920;-79
2023/02/14 05:30:52;;;;;;;;;;;1.60;69.00;;;;;;4997767;28;19967;-79
2023/02/14 05:33:18;;;;;;;;;;;1.60;68.90;;;;;;4989091;28;19910;-82
2023/02/14 05:35:44;;;;;;;;;;;1.50;69.50;;;;;;4987352;28;19917;-82
2023/02/14 05:38:11;;;;;;;;;;;1.60;69.00;;;;;;5000457;28;19939;-78
2023/02/14 05:40:37;;;;;;;;;;;1.60;68.70;;;;;;5001378;28;19913;-80
2023/02/14 05:43:03;;;;;;;;;;;1.50;69.10;;;;;;4985230;28;20709;-79
2023/02/14 05:45:28;;;;;;;;;;;1.70;68.20;;;;;;4989284;28;19920;-80
2023/02/14 05:47:54;;;;;;;;;;;1.90;67.60;;;;;;5000162;28;19924;-82
2023/02/14 05:50:20;;;;;;;;;;;1.80;67.80;;;;;;5000292;28;19986;-82
2023/02/14 05:52:45;;;;;;;;;;;1.80;67.40;;;;;;5001912;28;19913;-81
2023/02/14 05:55:11;;;;;;;;;;;1.80;67.40;;;;;;4977716;28;19921;-79
2023/02/14 05:57:36;;;;;;;;;;;1.90;67.30;;;;;;5000602;28;19968;-80
2023/02/14 06:00:05;;;;;;;;;;;1.80;67.60;;;;;;4994099;28;20361;-82
2023/02/14 06:02:31;;;;;;;;;;;1.70;68.20;;;;;;4996470;28;19984;-80
2023/02/14 06:04:56;;;;;;;;;;;1.60;68.50;;;;;;4996443;28;19918;-80
2023/02/14 06:07:22;;;;;;;;;;;1.40;69.40;;;;;;4994267;28;19920;-81
2023/02/14 06:09:48;;;;;;;;;;;1.30;70.20;;;;;;4981352;28;20363;-79
2023/02/14 06:12:13;;;;;;;;;;;1.40;69.80;;;;;;4995886;28;19913;-82
2023/02/14 06:14:41;;;;;;;;;;;1.40;70.10;;;;;;4993630;28;19920;-84
2023/02/14 06:17:08;;;;;;;;;;;1.40;69.60;;;;;;4978688;28;19943;-84
2023/02/14 06:19:33;;;;;;;;;;;1.30;70.10;;;;;;4999144;28;19913;-81
2023/02/14 06:21:59;;;;;;;;;;;1.40;70.10;;;;;;4996853;28;19920;-80
2023/02/14 06:24:25;;;;;;;;;;;1.40;69.60;;;;;;4993558;28;19995;-81
2023/02/14 06:26:50;;;;;;;;;;;1.40;69.90;;;;;;4994171;28;19913;-84
2023/02/14 06:29:16;;;;;;;;;;;1.40;69.60;;;;;;4999597;28;19921;-81
2023/02/14 06:31:42;;;;;;;;;;;1.40;69.60;;;;;;4991633;28;19913;-82
2023/02/14 06:34:07;;;;;;;;;;;1.40;69.40;;;;;;4992476;28;19914;-85
2023/02/14 06:36:33;;;;;;;;;;;1.40;69.30;;;;;;4987934;28;19924;-82
2023/02/14 06:38:59;;;;;;;;;;;1.30;69.80;;;;;;4996558;28;19924;-80
2023/02/14 06:41:24;;;;;;;;;;;1.30;70.00;;;;;;4998109;28;20298;-81
2023/02/14 06:43:50;;;;;;;;;;;1.40;69.90;;;;;;4995377;28;20060;-86
2023/02/14 06:46:16;;;;;;;;;;;1.20;70.50;;;;;;4995914;28;19928;-78
2023/02/14 06:48:42;;;;;;;;;;;1.30;70.00;;;;;;4997512;28;19913;-80
2023/02/14 06:51:07;;;;;;;;;;;1.30;70.00;;;;;;4996016;28;19967;-81
2023/02/14 06:53:35;;;;;;;;;;;1.20;70.90;;;;;;4991004;28;19952;-84
2023/02/14 06:56:00;;;;;;;;;;;1.10;71.30;;;;;;4993462;28;19956;-82
2023/02/14 06:58:26;;;;;;;;;;;1.10;71.30;;;;;;4971890;28;19953;-80
2023/02/14 07:00:54;;;;;;;;;;;1.10;71.30;;;;;;4986130;28;19976;-80
2023/02/14 07:03:19;;;;;;;;;;;1.20;71.10;;;;;;4993971;28;19916;-84
2023/02/14 07:05:45;;;;;;;;;;;1.10;71.10;;;;;;4996312;28;19929;-81
2023/02/14 07:08:10;;;;;;;;;;;1.10;71.50;;;;;;4993853;28;19913;-83
2023/02/14 07:10:36;;;;;;;;;;;1.10;71.50;;;;;;4982128;28;19926;-85
2023/02/14 07:13:02;;;;;;;;;;;1.30;70.90;;;;;;4997637;28;19909;-83
2023/02/14 07:15:28;;;;;;;;;;;2.30;68.10;;;;;;5001174;28;19921;-84
2023/02/14 07:17:54;;;;;;;;;;;2.80;66.00;;;;;;4998271;28;19964;-83
2023/02/14 07:20:19;;;;;;;;;;;3.10;65.20;;;;;;4994349;28;19913;-82
2023/02/14 07:22:45;;;;;;;;;;;3.30;64.40;;;;;;4998517;28;19913;-81
2023/02/14 07:25:11;;;;;;;;;;;3.50;63.60;;;;;;4999636;28;19920;-79
2023/02/14 07:27:36;;;;;;;;;;;3.70;62.90;;;;;;5001508;28;19941;-79
2023/02/14 07:30:03;;;;;;;;;;;3.80;63.10;;;;;;5002421;28;19960;-78
2023/02/14 07:32:29;;;;;;;;;;;4.10;62.10;;;;;;4972949;28;19937;-80
2023/02/14 07:34:54;;;;;;;;;;;4.40;61.30;;;;;;4996093;28;20437;-79
2023/02/14 07:37:20;;;;;;;;;;;4.70;60.40;;;;;;4996683;28;19974;-79
2023/02/14 07:39:46;;;;;;;;;;;4.80;60.10;;;;;;4992285;28;20340;-79
2023/02/14 07:42:11;;;;;;;;;;;4.60;61.10;;;;;;4966707;28;19914;-79
2023/02/14 07:44:37;;;;;;;;;;;4.50;61.80;;;;;;4991080;28;19913;-79
2023/02/14 07:47:06;;;;;;;;;;;4.70;61.00;;;;;;4995835;28;20279;-80
2023/02/14 07:49:31;;;;;;;;;;;4.80;61.40;;;;;;5002455;28;19916;-79
2023/02/14 07:51:57;;;;;;;;;;;4.80;60.90;;;;;;5000775;28;20372;-79
2023/02/14 07:54:23;;;;;;;;;;;4.80;60.40;;;;;;5000240;28;19913;-78
2023/02/14 07:56:48;;;;;;;;;;;4.90;60.80;;;;;;4998430;28;19924;-78
2023/02/14 07:59:14;;;;;;;;;;;5.20;60.10;;;;;;4994016;28;20373;-80
2023/02/14 08:01:40;;;;;;;;;;;5.30;59.80;;;;;;4979829;28;19947;-82
2023/02/14 08:04:06;;;;;;;;;;;5.40;59.50;;;;;;4994420;28;19920;-81
2023/02/14 08:06:31;;;;;;;;;;;5.50;59.60;;;;;;4996373;28;19909;-78
2023/02/14 08:08:57;;;;;;;;;;;5.70;59.80;;;;;;4991322;28;19909;-79
2023/02/14 08:14:17;;;;;;;;;;;6.00;59.20;;;;;;4957472;28;19917;-79
2023/02/14 08:16:43;;;;;;;;;;;6.00;58.50;;;;;;4988909;28;20715;-80
2023/02/14 08:19:08;;;;;;;;;;;6.20;58.30;;;;;;4983776;28;19978;-80
2023/02/14 08:21:34;;;;;;;;;;;6.40;58.20;;;;;;4999554;28;19951;-81
2023/02/14 08:24:00;;;;;;;;;;;6.60;57.60;;;;;;4974941;28;19944;-79
2023/02/14 08:26:25;;;;;;;;;;;6.80;58.00;;;;;;4994292;28;19917;-82
2023/02/14 08:28:51;;;;;;;;;;;6.80;56.20;;;;;;4970572;28;20345;-79
2023/02/14 08:31:21;;;;;;;;;;;7.00;56.70;;;;;;4994172;28;20353;-80
2023/02/14 08:33:47;;;;;;;;;;;7.20;56.80;;;;;;4985336;28;19920;-81
2023/02/14 08:36:12;;;;;;;;;;;7.10;56.20;;;;;;4973069;28;19914;-79
2023/02/14 08:38:40;;;;;;;;;;;7.30;57.20;;;;;;4992248;28;19921;-78
2023/02/14 08:41:05;;;;;;;;;;;7.30;57.10;;;;;;4990616;28;19910;-80
2023/02/14 08:43:31;;;;;;;;;;;7.50;56.40;;;;;;4995043;28;19909;-78
2023/02/14 08:45:57;;;;;;;;;;;7.50;55.10;;;;;;4997607;28;19992;-79
2023/02/14 08:48:24;;;;;;;;;;;7.50;55.30;;;;;;4990699;28;19969;-79
2023/02/14 08:50:49;;;;;;;;;;;7.70;55.10;;;;;;4985395;28;19910;-81
2023/02/14 08:53:15;;;;;;;;;;;7.80;54.70;;;;;;4994373;28;19936;-78
2023/02/14 08:55:41;;;;;;;;;;;8.10;54.80;;;;;;4987315;28;19914;-80
2023/02/14 08:58:06;;;;;;;;;;;8.30;54.80;;;;;;4994902;28;19975;-78
2023/02/14 09:00:32;;;;;;;;;;;8.40;54.10;;;;;;4988521;28;19909;-80
2023/02/14 09:02:59;;;;;;;;;;;8.70;54.60;;;;;;4990368;28;20665;-78
2023/02/14 09:05:25;;;;;;;;;;;8.80;54.30;;;;;;4984672;28;19964;-79
2023/02/14 09:07:51;;;;;;;;;;;8.70;54.40;;;;;;4975784;28;19909;-81
2023/02/14 09:10:19;;;;;;;;;;;8.90;54.00;;;;;;4995687;28;19991;-79
2023/02/14 09:12:45;;;;;;;;;;;8.90;53.10;;;;;;4992584;28;19909;-80
2023/02/14 09:15:11;;;;;;;;;;;9.10;52.80;;;;;;4982070;28;19916;-80
2023/02/14 09:17:37;;;;;;;;;;;9.30;53.30;;;;;;4997318;28;20441;-80
2023/02/14 09:20:05;;;;;;;;;;;9.50;53.00;;;;;;4988055;28;20049;-78
2023/02/14 09:22:31;;;;;;;;;;;9.60;52.50;;;;;;5001974;28;20043;-81
2023/02/14 09:24:57;;;;;;;;;;;10.00;52.60;;;;;;4991045;28;19971;-79
2023/02/14 09:27:23;;;;;;;;;;;10.00;52.40;;;;;;5003725;28;20778;-78
2023/02/14 09:29:48;;;;;;;;;;;10.10;52.20;;;;;;5001447;28;20000;-79
2023/02/14 09:32:14;;;;;;;;;;;10.10;51.60;;;;;;4989893;28;19909;-80
2023/02/14 09:34:40;;;;;;;;;;;10.50;51.70;;;;;;4992489;28;20028;-79
2023/02/14 09:39:50;;;;;;;;;;;10.90;51.10;;;;;;4993231;28;19916;-79
2023/02/14 09:42:24;;;;;;;;;;;10.70;50.50;;;;;;4983413;28;19909;-80
2023/02/14 09:44:52;;;;;;;;;;;10.50;50.50;;;;;;4999544;28;19913;-81
2023/02/14 09:47:18;;;;;;;;;;;10.30;50.30;;;;;;5003954;28;19921;-78
2023/02/14 09:49:45;;;;;;;;;;;10.00;50.00;;;;;;4992651;28;19917;-80
2023/02/14 09:52:13;;;;;;;;;;;9.90;50.60;;;;;;4989221;28;19909;-81
2023/02/14 09:54:40;;;;;;;;;;;10.10;51.60;;;;;;4994298;28;19917;-81
2023/02/14 09:57:06;;;;;;;;;;;10.00;50.60;;;;;;4986531;28;20405;-79
2023/02/14 09:59:38;;;;;;;;;;;10.10;51.70;;;;;;4971849;28;20048;-80
2023/02/14 10:02:23;;;;;;;;;;;10.20;50.90;;;;;;5000703;28;19922;-81
2023/02/14 10:05:15;;;;;;;;;;;10.50;50.50;;;;;;4991477;28;19913;-80
2023/02/14 10:07:43;;;;;;;;;;;10.40;50.70;;;;;;4986924;28;20225;-82
2023/02/14 10:10:17;;;;;;;;;;;10.60;50.80;;;;;;4992345;28;19910;-79
2023/02/14 10:12:49;;;;;;;;;;;10.50;49.20;;;;;;4974605;28;20576;-79
2023/02/14 10:15:17;;;;;;;;;;;10.60;48.70;;;;;;4986858;28;19921;-77
2023/02/14 10:17:46;;;;;;;;;;;10.80;51.60;;;;;;4994087;28;20279;-78
2023/02/14 10:27:41;;;;;;;0.10;0.10;;;11.00;49.70;;;;;;5065435;22;1471823;-79
2023/02/14 10:30:20;;;;;;;0.10;0.10;;;11.20;50.30;;;;;;5102894;28;20023;-76
2023/02/14 10:32:59;;;;;;;0.22;0.22;;;11.10;48.20;;;;;;5101838;28;20027;-78
2023/02/14 10:35:36;;;;;;;0.13;0.13;;;11.10;49.30;;;;;;5107555;28;20039;-78
2023/02/14 10:38:40;;;;;;;1.55;0.98;;;11.30;48.50;;;;;;5111096;28;20833;-76
2023/02/14 10:41:42;;;;;;;0.30;0.30;;;11.50;51.00;;;;;;5119943;28;20094;-78
2023/02/14 10:44:15;;;;;;;0.08;0.08;;;11.50;49.60;;;;;;5112634;28;20035;-77
2023/02/14 10:47:15;;;;;;;0.20;0.20;;;11.50;50.30;;;;;;5101375;28;20694;-78
2023/02/14 11:03:00;;;;;;;0.43;0.40;;;11.80;50.10;;;;;;5075743;27;20442;-80
2023/02/14 11:05:41;;;;;;;0.50;0.47;;;12.30;52.60;;;;;;5070334;28;20046;-80
2023/02/14 11:08:33;;;;;;;0.20;0.20;;;12.30;52.00;;;;;;5074410;28;20107;-78
2023/02/14 11:11:40;;;;;;;0.20;0.20;;;12.20;48.80;;;;;;5077915;28;20115;-81
2023/02/14 11:14:20;;;;;;;0.30;0.30;;;12.10;49.50;;;;;;5073325;28;20036;-79
2023/02/14 11:16:50;;;;;;;4.20;0.38;;;11.90;50.20;;;;;;5079390;28;20029;-79
2023/02/14 11:19:25;;;;;;;9.50;0.73;;;12.10;51.50;;;;;;5077945;28;20389;-80
2023/02/14 11:21:54;;;;;;;0.38;0.35;;;12.30;55.70;;;;;;5075627;28;20553;-80
2023/02/14 11:24:33;;;;;;;2.00;1.23;;;12.20;55.00;;;;;;5079945;28;20171;-80
2023/02/14 11:27:03;;;;;;;0.20;0.20;;;12.60;57.20;;;;;;5078573;28;20020;-82
2023/02/14 11:29:42;;;;;;;0.45;0.40;;;12.60;58.30;;;;;;5080132;28;20020;-81
2023/02/14 11:32:29;;;;;;;0.88;0.85;;;12.60;56.50;;;;;;5073625;28;20157;-79
2023/02/14 11:35:00;;;;;;;0.82;0.82;;;12.80;61.00;;;;;;5067621;28;20585;-82
2023/02/14 11:37:30;;;;;;;0.32;0.32;;;12.90;54.20;;;;;;5072175;28;20051;-80
2023/02/14 11:39:58;;;;;;;0.20;0.20;;;13.00;52.30;;;;;;5080409;28;20075;-80
2023/02/14 11:42:41;;;;;;;0.40;0.40;;;13.10;51.80;;;;;;5074098;28;20075;-80
2023/02/14 11:45:24;;;;;;;0.60;0.60;;;13.00;49.70;;;;;;5063651;28;20042;-80
2023/02/14 11:48:09;;;;;;;0.52;0.52;;;13.00;47.90;;;;;;5066352;28;20094;-81
2023/02/14 11:50:37;;;;;;;0.10;0.10;;;13.30;48.70;;;;;;5070541;28;20465;-80
2023/02/14 11:53:03;;;;;;;0.40;0.40;;;13.20;47.30;;;;;;5079169;28;20027;-79
2023/02/14 11:55:34;;;;;;;0.30;0.30;;;13.10;47.70;;;;;;5066196;28;20033;-81
2023/02/14 11:58:02;;;;;;;0.10;0.10;;;13.30;49.10;;;;;;5079963;28;20503;-80
2023/02/14 12:00:30;;;;;;;0.10;0.10;;;13.30;47.30;;;;;;5078507;28;20040;-79
2023/02/14 12:02:58;;;;;;;0.70;0.70;;;13.30;48.70;;;;;;5071828;28;20036;-78
2023/02/14 12:05:29;;;;;;;0.80;0.80;;;13.50;45.00;;;;;;5065822;28;20591;-79
2023/02/14 12:08:03;;;;;;;0.40;0.40;;;13.30;46.60;;;;;;5066080;28;20093;-79
2023/02/14 12:10:37;;;;;;;0.22;0.22;;;13.50;52.30;;;;;;5064602;28;20137;-80
2023/02/14 12:13:06;;;;;;;0.20;0.20;;;13.50;51.00;;;;;;5066650;28;20028;-79
2023/02/14 12:15:48;;;;;;;0.32;0.32;;;13.60;48.30;;;;;;5066502;28;20031;-79
2023/02/14 12:18:17;;;;;;;1.13;1.08;;;13.30;46.80;;;;;;5061937;28;20407;-80
2023/02/14 12:20:55;;;;;;;0.35;0.35;;;13.90;49.00;;;;;;5066024;28;20146;-79
2023/02/14 12:23:41;;;;;;;0.45;0.45;;;13.20;46.90;;;;;;5064624;28;20028;-80
2023/02/14 12:26:19;;;;;;;0.77;0.77;;;13.30;46.80;;;;;;5064725;28;20033;-79
2023/02/14 12:28:56;;;;;;;0.10;0.10;;;13.10;47.00;;;;;;5065590;28;20056;-80
2023/02/14 12:31:21;;;;;;;0.17;0.17;;;13.80;47.20;;;;;;5065923;28;20166;-80
2023/02/14 12:33:47;;;;;;;0.38;0.38;;;13.60;47.30;;;;;;5065838;28;20111;-80
2023/02/14 12:36:37;;;;;;;16.63;1.10;;;13.70;46.50;;;;;;5065104;28;20103;-79
2023/02/14 12:39:31;;;;;;;0.05;0.05;;;13.20;46.90;;;;;;5058943;28;20491;-79
2023/02/14 12:42:35;;;;;;;0.50;0.47;;;13.10;44.40;;;;;;5055165;28;20565;-80
2023/02/14 12:45:18;;;;;;;0.43;0.43;;;13.40;45.70;;;;;;5063177;28;20029;-80
2023/02/14 12:48:19;;;;;;;0.57;0.57;;;13.20;46.10;;;;;;5056802;28;20021;-79
2023/02/14 12:51:03;;;;;;;2.15;1.15;;;13.50;47.80;;;;;;5021621;28;20454;-80
2023/02/14 12:54:01;;;;;;;0.10;0.10;;;13.30;47.00;;;;;;5057766;28;20044;-80
2023/02/14 12:56:48;;;;;;;0.20;0.20;;;13.50;46.40;;;;;;5051321;28;20021;-79
2023/02/14 12:59:20;;;;;;;1.08;1.08;;;13.10;47.90;;;;;;5065276;28;20510;-80
2023/02/14 13:01:56;;;;;;;0.60;0.60;;;13.00;48.50;;;;;;5064334;28;20060;-80
2023/02/14 13:04:47;;;;;;;0.17;0.17;;;13.20;46.50;;;;;;5064820;28;20029;-79
2023/02/14 13:07:38;;;;;;;1.75;1.20;;;13.60;44.20;;;;;;5064797;28;20077;-79
2023/02/14 13:10:29;;;;;;;1.95;0.65;;;13.60;46.60;;;;;;5056654;28;20035;-80
2023/02/14 13:13:01;;;;;;;0.10;0.10;;;13.40;46.70;;;;;;5064295;28;20157;-79
2023/02/14 13:15:33;;;;;;;0.10;0.10;;;13.80;45.00;;;;;;5064369;28;20035;-80
2023/02/14 13:18:14;;;;;;;4.43;1.33;;;13.50;46.90;;;;;;5055398;28;20032;-80
2023/02/14 13:20:51;;;;;;;0.20;0.20;;;13.60;48.50;;;;;;5064904;28;20024;-80
2023/02/14 13:23:17;;;;;;;;;;;13.40;47.00;;;;;;5065030;28;20043;-79
2023/02/14 13:25:49;;;;;;;0.00;0.00;;;13.80;47.50;;;;;;5064130;28;20434;-80
2023/02/14 13:28:16;;;;;;;0.20;0.17;;;13.70;45.90;;;;;;5064835;28;20028;-79
2023/02/14 13:30:42;;;;;;;1.30;0.55;;;13.50;47.30;;;;;;5064707;28;20033;-79
2023/02/14 13:33:25;;;;;;;0.50;0.50;;;13.30;47.40;;;;;;5065076;28;20024;-79
2023/02/14 13:35:55;;;;;;;0.90;0.90;;;13.60;47.30;;;;;;5063068;28;20136;-80
2023/02/14 13:38:23;;;;;;;0.30;0.30;;;13.70;45.10;;;;;;5064235;28;20111;-79
2023/02/14 13:40:50;;;;;;;0.20;0.20;;;13.60;45.10;;;;;;5064481;28;20032;-80
2023/02/14 13:43:46;;;;;;;0.10;0.10;;;13.80;45.30;;;;;;5064641;28;20055;-79
2023/02/14 13:46:14;;;;;;;0.13;0.13;;;13.80;45.00;;;;;;5057220;28;20097;-79
2023/02/14 13:48:41;;;;;;;2.50;0.43;;;13.30;46.00;;;;;;5063758;28;20024;-79
2023/02/14 13:51:08;;;;;;;0.25;0.25;;;13.50;45.30;;;;;;5063711;28;20036;-81
2023/02/14 13:53:48;;;;;;;0.50;0.50;;;13.50;46.00;;;;;;5064050;28;20042;-80
2023/02/14 13:56:14;;;;;;;6.85;0.85;;;13.60;45.70;;;;;;5062637;28;20020;-80
2023/02/14 13:58:47;;;;;;;0.38;0.38;;;14.10;44.90;;;;;;5064399;28;20951;-80
2023/02/14 14:01:34;;;;;;;0.22;0.22;;;13.70;44.90;;;;;;5063249;28;20086;-79
2023/02/14 14:04:22;;;;;;;0.50;0.50;;;13.90;45.10;;;;;;5064263;28;20023;-81
2023/02/14 14:07:02;;;;;;;0.32;0.32;;;14.00;45.00;;;;;;5055217;28;20117;-78
2023/02/14 14:09:44;;;;;;;0.40;0.40;;;13.70;45.40;;;;;;5064000;28;20025;-79
2023/02/14 14:12:27;;;;;;;0.03;0.03;;;13.70;44.30;;;;;;5063207;28;20032;-79
2023/02/14 14:15:05;;;;;;;1.45;0.85;;;13.70;45.20;;;;;;5055135;28;20056;-79
2023/02/14 14:17:38;;;;;;;0.77;0.35;;;14.40;44.50;;;;;;5063697;28;20035;-79
2023/02/14 14:20:19;;;;;;;0.10;0.10;;;14.40;43.70;;;;;;5063615;28;20020;-79
2023/02/14 14:22:47;;;;;;;2.63;0.60;;;14.20;44.70;;;;;;5063463;28;20028;-80
2023/02/14 14:25:13;;;;;;;0.10;0.10;;;14.20;44.80;;;;;;5063685;28;20020;-79
2023/02/14 14:27:44;;;;;;;0.50;0.50;;;14.10;45.40;;;;;;5063775;28;20039;-79
2023/02/14 14:30:13;;;;;;;0.90;0.52;;;14.30;43.00;;;;;;5063295;28;20066;-80
2023/02/14 14:32:39;;;;;;;0.30;0.30;;;14.00;44.50;;;;;;5061869;28;20036;-81
2023/02/14 14:35:21;;;;;;;0.10;0.10;;;14.10;45.00;;;;;;5063510;28;20509;-79
2023/02/14 14:37:53;;;;;;;0.10;0.10;;;13.70;45.30;;;;;;5056490;28;20020;-80
2023/02/14 14:40:24;;;;;;;0.25;0.25;;;14.20;44.10;;;;;;5061991;28;20025;-81
2023/02/14 14:42:51;;;;;;;0.10;0.10;;;14.00;43.80;;;;;;5063611;28;20143;-79
2023/02/14 14:45:24;;;;;;;0.10;0.10;;;13.80;45.00;;;;;;5063498;28;20073;-79
2023/02/14 14:47:52;;;;;;;0.32;0.32;;;13.80;43.80;;;;;;5063497;28;20039;-80
2023/02/14 14:50:22;;;;;;;0.17;0.17;;;13.70;44.10;;;;;;5061910;28;20480;-79
2023/02/14 14:52:50;;;;;;;0.95;0.45;;;14.20;44.70;;;;;;5063275;28;20443;-79
2023/02/14 14:55:23;;;;;;;0.20;0.20;;;14.30;44.20;;;;;;5061825;28;20403;-80